createdAt,value
2022-10-28T00:03:43.268Z,45.10
2022-10-28T00:06:13.070Z,35.95
2022-10-28T00:08:40.638Z,36.13
2022-10-28T00:11:11.601Z,34.15
2022-10-28T00:13:39.863Z,48.22
2022-10-28T00:16:12.155Z,39.22
2022-10-28T00:18:40.202Z,45.90
2022-10-28T00:21:14.411Z,44.67
2022-10-28T00:23:41.890Z,50.88
2022-10-28T00:26:13.233Z,50.13
2022-10-28T00:28:45.419Z,41.58
2022-10-28T00:31:14.088Z,46.30
2022-10-28T00:33:41.932Z,43.63
2022-10-28T00:36:11.787Z,51.17
2022-10-28T00:38:40.010Z,58.45
2022-10-28T00:41:08.247Z,57.67
2022-10-28T00:43:37.815Z,49.13
2022-10-28T00:46:25.979Z,56.65
2022-10-28T00:49:19.061Z,57.80
2022-10-28T00:51:49.346Z,50.78
2022-10-28T00:56:49.151Z,45.88
2022-10-28T00:59:37.400Z,43.35
2022-10-28T01:02:05.742Z,47.13
2022-10-28T01:04:33.351Z,34.03
2022-10-28T01:07:02.041Z,58.67
2022-10-28T01:09:29.162Z,40.70
2022-10-28T01:12:17.743Z,51.53
2022-10-28T01:14:50.992Z,42.63
2022-10-28T01:17:37.505Z,47.20
2022-10-28T01:20:44.200Z,37.47
2022-10-28T01:23:36.751Z,42.13
2022-10-28T01:26:54.982Z,41.25
2022-10-28T01:29:49.839Z,42.58
2022-10-28T01:32:32.365Z,42.95
2022-10-28T01:35:38.751Z,45.45
2022-10-28T01:38:36.401Z,43.40
2022-10-28T01:41:17.792Z,43.08
2022-10-28T01:43:55.291Z,51.58
2022-10-28T01:46:28.603Z,47.50
2022-10-28T01:48:58.156Z,46.95
2022-10-28T01:51:54.711Z,46.58
2022-10-28T01:54:25.523Z,45.55
2022-10-28T01:56:57.067Z,56.15
2022-10-28T01:59:28.566Z,38.35
2022-10-28T02:01:56.658Z,47.08
2022-10-28T02:04:23.861Z,48.75
2022-10-28T02:06:54.799Z,52.83
2022-10-28T02:09:37.939Z,48.35
2022-10-28T02:12:28.982Z,44.67
2022-10-28T02:15:02.208Z,50.10
2022-10-28T02:17:48.542Z,39.30
2022-10-28T02:20:26.591Z,44.38
2022-10-28T02:23:23.458Z,37.05
2022-10-28T02:26:23.160Z,32.45
2022-10-28T02:29:05.574Z,41.40
2022-10-28T02:31:37.701Z,33.38
2022-10-28T02:34:10.064Z,41.63
2022-10-28T02:36:42.001Z,38.92
2022-10-28T02:39:09.110Z,33.47
2022-10-28T02:41:51.647Z,41.05
2022-10-28T02:44:25.504Z,45.45
2022-10-28T02:46:55.675Z,46.33
2022-10-28T02:49:24.681Z,43.28
2022-10-28T02:51:57.761Z,43.42
2022-10-28T02:54:55.355Z,37.88
2022-10-28T02:57:28.440Z,38.08
2022-10-28T02:59:59.262Z,37.75
2022-10-28T03:02:27.309Z,43.30
2022-10-28T03:04:54.381Z,44.83
2022-10-28T03:07:21.745Z,43.35
2022-10-28T03:09:49.007Z,32.72
2022-10-28T03:12:16.181Z,32.63
2022-10-28T03:14:43.341Z,32.30
2022-10-28T03:17:10.411Z,47.42
2022-10-28T03:19:37.684Z,47.13
2022-10-28T03:22:04.956Z,41.38
2022-10-28T03:24:32.223Z,47.45
2022-10-28T03:26:59.533Z,46.53
2022-10-28T03:29:26.747Z,42.30
2022-10-28T03:31:53.846Z,43.03
2022-10-28T03:34:21.031Z,38.83
2022-10-28T03:36:48.260Z,40.55
2022-10-28T03:39:15.796Z,40.78
2022-10-28T03:41:42.900Z,42.22
2022-10-28T03:44:10.210Z,49.00
2022-10-28T03:46:37.470Z,42.33
2022-10-28T03:49:04.867Z,43.28
2022-10-28T03:51:32.103Z,46.63
2022-10-28T03:53:59.440Z,37.17
2022-10-28T03:56:26.771Z,41.45
2022-10-28T03:58:54.134Z,39.75
2022-10-28T04:01:21.564Z,48.70
2022-10-28T04:03:48.852Z,40.22
2022-10-28T04:06:17.027Z,50.97
2022-10-28T04:08:44.167Z,42.95
2022-10-28T04:11:11.292Z,44.72
2022-10-28T04:13:38.530Z,46.08
2022-10-28T04:16:06.353Z,41.05
2022-10-28T04:18:33.651Z,41.15
2022-10-28T04:21:00.869Z,45.08
2022-10-28T04:23:28.150Z,39.00
2022-10-28T04:25:55.571Z,44.25
2022-10-28T04:28:26.325Z,46.63
2022-10-28T04:30:53.442Z,49.78
2022-10-28T04:33:20.565Z,48.35
2022-10-28T04:35:47.865Z,40.33
2022-10-28T04:38:15.836Z,42.20
2022-10-28T04:40:43.076Z,38.53
2022-10-28T04:43:12.048Z,42.42
2022-10-28T04:45:39.749Z,41.92
2022-10-28T04:48:07.115Z,43.78
2022-10-28T04:50:34.521Z,49.55
2022-10-28T04:53:10.741Z,51.67
2022-10-28T04:55:38.121Z,52.25
2022-10-28T04:58:05.374Z,50.30
2022-10-28T05:00:32.573Z,43.72
2022-10-28T05:03:03.407Z,48.35
2022-10-28T05:05:30.830Z,41.42
2022-10-28T05:07:58.165Z,45.60
2022-10-28T05:10:25.405Z,43.15
2022-10-28T05:12:52.497Z,48.67
2022-10-28T05:15:19.748Z,46.78
2022-10-28T05:17:47.813Z,45.20
2022-10-28T05:20:17.725Z,45.28
2022-10-28T05:22:50.455Z,46.08
2022-10-28T05:25:18.461Z,41.75
2022-10-28T05:27:45.870Z,43.75
2022-10-28T05:30:13.700Z,44.70
2022-10-28T05:32:41.123Z,46.55
2022-10-28T05:35:09.292Z,52.42
2022-10-28T05:37:36.637Z,44.67
2022-10-28T05:40:04.635Z,48.30
2022-10-28T05:42:32.087Z,48.63
2022-10-28T05:44:59.159Z,43.75
2022-10-28T05:47:26.436Z,45.92
2022-10-28T05:49:53.795Z,49.45
2022-10-28T05:52:21.063Z,47.22
2022-10-28T05:54:48.186Z,47.58
2022-10-28T05:57:15.391Z,47.55
2022-10-28T05:59:42.689Z,50.33
2022-10-28T06:02:16.001Z,50.35
2022-10-28T06:04:43.380Z,52.03
2022-10-28T06:07:10.662Z,50.75
2022-10-28T06:09:37.770Z,52.53
2022-10-28T06:12:05.718Z,49.90
2022-10-28T06:14:33.499Z,52.17
2022-10-28T06:17:00.728Z,53.50
2022-10-28T06:19:27.821Z,53.15
2022-10-28T06:21:55.027Z,50.55
2022-10-28T06:24:22.126Z,48.42
2022-10-28T06:26:49.211Z,52.38
2022-10-28T06:29:16.444Z,48.33
2022-10-28T06:31:43.667Z,46.28
2022-10-28T06:34:11.599Z,44.55
2022-10-28T06:36:38.826Z,50.58
2022-10-28T06:39:06.268Z,48.90
2022-10-28T06:41:33.955Z,48.28
2022-10-28T06:44:02.004Z,45.03
2022-10-28T06:46:29.326Z,46.88
2022-10-28T06:48:58.083Z,43.60
2022-10-28T06:51:25.257Z,49.72
2022-10-28T06:53:53.637Z,56.17
2022-10-28T06:56:20.747Z,49.00
2022-10-28T06:58:55.240Z,52.72
2022-10-28T07:01:23.047Z,49.72
2022-10-28T07:03:50.302Z,49.53
2022-10-28T07:06:17.943Z,43.33
2022-10-28T07:08:45.239Z,49.50
2022-10-28T07:11:12.757Z,45.00
2022-10-28T07:13:42.467Z,45.97
2022-10-28T07:16:11.553Z,48.90
2022-10-28T07:18:38.926Z,44.08
2022-10-28T07:21:06.666Z,43.35
2022-10-28T07:23:34.570Z,45.95
2022-10-28T07:26:02.004Z,46.75
2022-10-28T07:28:29.416Z,45.25
2022-10-28T07:31:02.026Z,44.83
2022-10-28T07:33:29.237Z,45.78
2022-10-28T07:35:56.404Z,42.30
2022-10-28T07:38:23.776Z,44.13
2022-10-28T07:40:50.855Z,42.38
2022-10-28T07:43:18.224Z,41.58
2022-10-28T07:45:45.658Z,41.05
2022-10-28T07:48:13.012Z,38.25
2022-10-28T07:50:43.363Z,39.55
2022-10-28T07:55:37.914Z,36.15
2022-10-28T07:58:05.373Z,33.33
2022-10-28T08:00:32.477Z,31.23
2022-10-28T08:02:59.601Z,32.85
2022-10-28T08:05:26.761Z,31.60
2022-10-28T08:07:54.224Z,29.25
2022-10-28T08:10:21.572Z,28.30
2022-10-28T08:12:49.066Z,28.70
2022-10-28T08:15:17.038Z,29.33
2022-10-28T08:17:44.088Z,27.38
2022-10-28T08:20:11.435Z,27.13
2022-10-28T08:22:38.611Z,25.10
2022-10-28T08:25:06.314Z,23.67
2022-10-28T08:27:33.591Z,24.83
2022-10-28T08:30:00.851Z,21.73
2022-10-28T08:32:28.059Z,22.27
2022-10-28T08:34:55.259Z,20.15
2022-10-28T08:37:22.524Z,20.40
2022-10-28T08:39:50.077Z,19.95
2022-10-28T08:42:58.804Z,18.83
2022-10-28T08:46:03.779Z,18.77
2022-10-28T08:48:35.651Z,18.73
2022-10-28T08:51:29.755Z,18.75
2022-10-28T08:54:07.028Z,18.52
2022-10-28T08:56:37.882Z,19.35
2022-10-28T08:59:07.736Z,18.55
2022-10-28T09:01:56.939Z,18.83
2022-10-28T09:04:44.771Z,17.60
2022-10-28T09:07:20.692Z,18.50
2022-10-28T09:09:50.148Z,19.58
2022-10-28T09:12:17.128Z,17.77
2022-10-28T09:15:27.203Z,18.40
2022-10-28T09:18:13.149Z,18.05
2022-10-28T09:20:48.476Z,17.83
2022-10-28T09:26:42.581Z,18.08
2022-10-28T09:29:35.746Z,17.13
2022-10-28T09:32:39.625Z,17.55
2022-10-28T09:35:13.326Z,15.65
2022-10-28T09:37:49.820Z,16.13
2022-10-28T09:40:29.925Z,16.52
2022-10-28T09:42:57.292Z,16.45
2022-10-28T09:45:29.179Z,15.70
2022-10-28T09:48:02.123Z,16.02
2022-10-28T09:50:33.649Z,15.15
2022-10-28T09:53:14.820Z,15.90
2022-10-28T09:55:42.195Z,15.95
2022-10-28T09:58:11.906Z,15.75
2022-10-28T10:00:39.787Z,13.90
2022-10-28T10:03:07.057Z,14.95
2022-10-28T10:05:39.380Z,13.40
2022-10-28T10:08:11.159Z,14.38
2022-10-28T10:10:55.048Z,14.23
2022-10-28T10:13:29.871Z,14.10
2022-10-28T10:16:32.173Z,14.23
2022-10-28T10:19:02.304Z,13.75
2022-10-28T10:21:55.811Z,13.75
2022-10-28T10:24:34.535Z,12.98
2022-10-28T10:27:21.413Z,12.88
2022-10-28T10:29:52.016Z,12.95
2022-10-28T10:32:27.698Z,11.95
2022-10-28T10:35:13.361Z,11.90
2022-10-28T10:37:46.025Z,12.23
2022-10-28T10:40:26.862Z,11.63
2022-10-28T10:43:12.809Z,11.75
2022-10-28T10:48:25.608Z,11.05
2022-10-28T10:50:54.511Z,9.88
2022-10-28T10:53:25.628Z,10.13
2022-10-28T10:56:05.175Z,9.73
2022-10-28T10:58:36.018Z,11.43
2022-10-28T11:01:06.520Z,10.65
2022-10-28T11:03:37.340Z,10.38
2022-10-28T11:06:24.403Z,9.90
2022-10-28T11:09:06.668Z,10.40
2022-10-28T11:14:32.734Z,12.68
2022-10-28T11:17:02.059Z,11.68
2022-10-28T11:22:34.493Z,11.30
2022-10-28T11:25:10.819Z,11.73
2022-10-28T11:27:37.987Z,12.20
2022-10-28T11:30:11.337Z,12.77
2022-10-28T11:33:07.957Z,12.75
2022-10-28T11:35:49.208Z,15.35
2022-10-28T11:44:44.706Z,12.30
2022-10-28T11:47:17.503Z,12.45
2022-10-28T11:50:15.734Z,11.35
2022-10-28T11:56:01.828Z,12.02
2022-10-28T11:58:42.044Z,12.93
2022-10-28T12:01:22.339Z,12.18
2022-10-28T12:04:08.190Z,12.60
2022-10-28T12:10:33.387Z,11.52
2022-10-28T12:16:38.787Z,10.77
2022-10-28T12:19:47.299Z,11.38
2022-10-28T12:22:36.206Z,11.40
2022-10-28T12:25:13.784Z,10.98
2022-10-28T12:27:44.193Z,10.98
2022-10-28T12:32:44.067Z,11.98
2022-10-28T12:35:30.957Z,12.43
2022-10-28T12:38:41.147Z,11.95
2022-10-28T12:41:21.134Z,11.32
2022-10-28T12:43:54.820Z,11.30
2022-10-28T12:46:45.344Z,11.48
2022-10-28T12:49:32.990Z,11.80
2022-10-28T12:52:08.558Z,10.63
2022-10-28T12:54:54.520Z,11.23
2022-10-28T12:57:23.600Z,10.85
2022-10-28T13:00:26.116Z,11.05
2022-10-28T13:03:04.545Z,11.02
2022-10-28T13:05:46.820Z,11.10
2022-10-28T13:08:24.030Z,11.05
2022-10-28T13:10:58.399Z,12.38
2022-10-28T13:14:07.290Z,11.60
2022-10-28T13:16:52.948Z,11.27
2022-10-28T13:19:36.967Z,10.85
2022-10-28T13:22:16.283Z,10.60
2022-10-28T13:25:31.396Z,10.82
2022-10-28T13:30:57.766Z,10.15
2022-10-28T13:36:41.826Z,10.98
2022-10-28T13:39:33.591Z,9.95
2022-10-28T13:42:12.946Z,9.85
2022-10-28T13:44:56.607Z,9.50
2022-10-28T13:47:27.680Z,8.93
2022-10-28T13:53:31.008Z,9.70
2022-10-28T13:55:59.014Z,8.93
2022-10-28T13:58:27.080Z,9.75
2022-10-28T14:00:55.368Z,9.48
2022-10-28T14:03:26.334Z,9.82
2022-10-28T14:05:57.645Z,10.25
2022-10-28T14:08:24.885Z,9.55
2022-10-28T14:11:22.594Z,9.27
2022-10-28T14:14:01.344Z,9.57
2022-10-28T14:16:39.166Z,9.63
2022-10-28T14:19:11.963Z,8.68
2022-10-28T14:21:51.219Z,9.75
2022-10-28T14:24:38.000Z,8.90
2022-10-28T14:27:08.453Z,9.88
2022-10-28T14:30:13.831Z,8.88
2022-10-28T14:33:11.518Z,9.85
2022-10-28T14:35:44.513Z,9.73
2022-10-28T14:39:08.759Z,9.63
2022-10-28T14:45:06.163Z,9.45
2022-10-28T14:50:50.858Z,9.38
2022-10-28T14:53:28.787Z,9.27
2022-10-28T14:56:03.157Z,9.35
2022-10-28T14:58:37.018Z,9.65
2022-10-28T15:01:10.259Z,10.38
2022-10-28T15:03:39.255Z,9.18
2022-10-28T15:06:24.192Z,8.50
2022-10-28T15:08:53.261Z,9.77
2022-10-28T15:11:21.271Z,9.48
2022-10-28T15:13:52.477Z,9.43
2022-10-28T15:16:24.767Z,10.52
2022-10-28T15:21:38.927Z,10.00
2022-10-28T15:24:08.426Z,10.15
2022-10-28T15:26:35.675Z,9.40
2022-10-28T15:32:24.793Z,11.45
2022-10-28T15:37:36.907Z,9.77
2022-10-28T15:40:20.854Z,10.52
2022-10-28T15:42:58.941Z,10.70
2022-10-28T15:45:31.963Z,10.23
2022-10-28T15:48:01.118Z,11.25
2022-10-28T15:50:32.655Z,10.88
2022-10-28T15:53:11.834Z,11.65
2022-10-28T15:56:06.954Z,11.85
2022-10-28T16:04:22.172Z,12.40
2022-10-28T16:06:58.464Z,11.25
2022-10-28T16:09:32.682Z,10.48
2022-10-28T16:12:04.795Z,10.88
2022-10-28T16:14:44.182Z,12.00
2022-10-28T16:20:17.310Z,13.32
2022-10-28T16:22:47.107Z,13.50
2022-10-28T16:25:17.236Z,13.50
2022-10-28T16:27:44.409Z,13.63
2022-10-28T16:30:12.205Z,13.93
2022-10-28T16:32:47.274Z,13.57
2022-10-28T16:35:20.247Z,13.30
2022-10-28T16:37:53.794Z,14.13
2022-10-28T16:40:50.911Z,13.88
2022-10-28T16:43:16.853Z,14.80
2022-10-28T16:45:44.094Z,14.45
2022-10-28T16:51:16.569Z,13.30
2022-10-28T16:53:47.534Z,14.23
2022-10-28T16:56:16.257Z,12.95
2022-10-28T16:58:44.439Z,13.60
2022-10-28T17:03:56.952Z,12.95
2022-10-28T17:06:24.234Z,12.75
2022-10-28T17:09:06.677Z,11.88
2022-10-28T17:11:34.076Z,12.43
2022-10-28T17:14:01.181Z,12.68
2022-10-28T17:16:28.470Z,13.05
2022-10-28T17:18:55.532Z,12.82
2022-10-28T17:21:22.643Z,13.75
2022-10-28T17:23:49.845Z,13.90
2022-10-28T17:26:17.140Z,12.98
2022-10-28T17:28:44.240Z,13.77
2022-10-28T17:33:56.489Z,12.90
2022-10-28T17:36:23.920Z,13.52
2022-10-28T17:38:51.218Z,13.80
2022-10-28T17:41:18.641Z,14.65
2022-10-28T17:43:45.996Z,13.80
2022-10-28T17:46:13.330Z,13.73
2022-10-28T17:48:40.691Z,13.52
2022-10-28T17:51:08.058Z,14.48
2022-10-28T17:53:35.266Z,13.95
2022-10-28T17:56:04.720Z,14.25
2022-10-28T17:58:32.611Z,12.27
2022-10-28T18:01:08.088Z,11.13
2022-10-28T18:03:38.487Z,11.27
2022-10-28T18:08:54.119Z,13.75
2022-10-28T18:11:21.661Z,15.93
2022-10-28T18:13:51.676Z,15.27
2022-10-28T18:16:24.472Z,16.15
2022-10-28T18:21:36.946Z,12.45
2022-10-28T18:24:04.583Z,12.25
2022-10-28T18:26:36.182Z,11.10
2022-10-28T18:29:05.813Z,11.13
2022-10-28T18:31:33.892Z,10.20
2022-10-28T18:36:46.680Z,9.40
2022-10-28T18:41:58.095Z,8.60
2022-10-28T18:44:32.028Z,8.70
2022-10-28T18:49:45.748Z,8.10
2022-10-28T18:52:12.926Z,8.27
2022-10-28T18:54:40.152Z,7.78
2022-10-28T18:57:07.351Z,8.10
2022-10-28T18:59:35.238Z,8.00
2022-10-28T19:02:04.622Z,8.25
2022-10-28T19:04:31.920Z,7.90
2022-10-28T19:09:43.856Z,8.32
2022-10-28T19:12:11.027Z,8.40
2022-10-28T19:14:38.371Z,8.98
2022-10-28T19:17:05.517Z,8.45
2022-10-28T19:19:35.550Z,8.90
2022-10-28T19:22:05.726Z,9.02
2022-10-28T19:24:32.974Z,8.90
2022-10-28T19:27:00.198Z,8.80
2022-10-28T19:29:27.318Z,8.88
2022-10-28T19:31:54.575Z,9.30
2022-10-28T19:34:21.813Z,9.00
2022-10-28T19:36:49.111Z,9.15
2022-10-28T19:39:16.362Z,9.25
2022-10-28T19:41:43.961Z,9.38
2022-10-28T19:46:55.483Z,9.57
2022-10-28T19:49:26.886Z,9.15
2022-10-28T19:51:55.862Z,8.95
2022-10-28T19:54:23.186Z,8.90
2022-10-28T19:56:50.899Z,8.95
2022-10-28T19:59:18.265Z,9.25
2022-10-28T20:04:29.744Z,9.40
2022-10-28T20:06:59.141Z,8.73
2022-10-28T20:09:28.939Z,8.82
2022-10-28T20:14:23.716Z,8.57
2022-10-28T20:16:51.020Z,8.45
2022-10-28T20:19:18.143Z,9.25
2022-10-28T20:24:30.368Z,8.40
2022-10-28T20:26:57.610Z,8.55
2022-10-28T20:29:24.672Z,8.90
2022-10-28T20:31:52.571Z,9.52
2022-10-28T20:34:19.945Z,9.50
2022-10-28T20:36:46.954Z,8.80
2022-10-28T20:39:19.656Z,9.13
2022-10-28T20:41:48.367Z,8.65
2022-10-28T20:44:15.873Z,8.73
2022-10-28T20:46:45.437Z,8.75
2022-10-28T20:49:13.434Z,8.80
2022-10-28T20:51:41.192Z,8.85
2022-10-28T20:54:08.503Z,8.57
2022-10-28T20:56:38.018Z,9.00
2022-10-28T20:59:05.817Z,8.60
2022-10-28T21:01:39.478Z,8.98
2022-10-28T21:04:09.873Z,8.75
2022-10-28T21:09:23.070Z,8.40
2022-10-28T21:11:50.117Z,9.02
2022-10-28T21:14:17.236Z,9.13
2022-10-28T21:19:29.558Z,9.32
2022-10-28T21:21:56.786Z,9.07
2022-10-28T21:24:23.978Z,9.45
2022-10-28T21:26:52.167Z,9.32
2022-10-28T21:29:19.401Z,8.90
2022-10-28T21:31:50.037Z,9.40
2022-10-28T21:34:17.521Z,9.60
2022-10-28T21:36:44.676Z,9.63
2022-10-28T21:39:11.732Z,9.43
2022-10-28T21:41:38.881Z,9.15
2022-10-28T21:44:06.463Z,9.30
2022-10-28T21:46:33.724Z,9.85
2022-10-28T21:49:01.731Z,9.23
2022-10-28T21:56:57.877Z,9.90
2022-10-28T21:59:24.935Z,8.93
2022-10-28T22:01:52.272Z,8.35
2022-10-28T22:04:19.662Z,9.30
2022-10-28T22:09:15.110Z,9.63
2022-10-28T22:11:42.435Z,9.55
2022-10-28T22:14:09.593Z,9.27
2022-10-28T22:16:36.909Z,9.20
2022-10-28T22:19:07.876Z,9.27
2022-10-28T22:21:40.774Z,9.68
2022-10-28T22:24:08.325Z,9.02
2022-10-28T22:26:35.485Z,9.93
2022-10-28T22:29:02.777Z,9.55
2022-10-28T22:31:32.460Z,9.73
2022-10-28T22:34:00.525Z,9.52
2022-10-28T22:36:29.828Z,9.55
2022-10-28T22:41:42.095Z,9.90
2022-10-28T22:44:09.382Z,9.02
2022-10-28T22:46:36.880Z,9.63
2022-10-28T22:49:04.736Z,9.18
2022-10-28T22:51:32.549Z,10.15
2022-10-28T22:54:00.013Z,10.45
2022-10-28T22:56:27.952Z,9.93
2022-10-28T22:58:57.301Z,9.57
2022-10-28T23:01:26.158Z,10.02
2022-10-28T23:06:39.291Z,10.18
2022-10-28T23:09:06.415Z,9.48
2022-10-28T23:11:33.462Z,10.43
2022-10-28T23:14:01.321Z,9.88
2022-10-28T23:16:28.712Z,9.82
2022-10-28T23:18:56.145Z,9.95
2022-10-28T23:21:25.381Z,10.38
2022-10-28T23:24:00.131Z,10.38
2022-10-28T23:26:29.249Z,9.95
2022-10-28T23:31:44.072Z,10.63
2022-10-28T23:36:55.745Z,10.23
2022-10-28T23:42:07.271Z,10.05
2022-10-28T23:44:34.353Z,10.75
2022-10-28T23:47:01.555Z,9.90
2022-10-28T23:49:28.821Z,9.43
2022-10-28T23:51:56.091Z,10.77
2022-10-28T23:57:08.543Z,10.00
2022-10-28T23:59:35.742Z,10.82
